sensor_id;sensor_type;location;lat;lon;timestamp;P1;durP1;ratioP1;P2;durP2;ratioP2
22415;SDS011;12204;50.600;4.608;2022-12-16T00:01:57;43.05;;;21.23;;
22415;SDS011;12204;50.600;4.608;2022-12-16T00:07:01;37.33;;;20.23;;
22415;SDS011;12204;50.600;4.608;2022-12-16T00:12:06;36.38;;;19.50;;
22415;SDS011;12204;50.600;4.608;2022-12-16T00:17:10;32.95;;;18.42;;
22415;SDS011;12204;50.600;4.608;2022-12-16T00:22:14;35.63;;;18.73;;
22415;SDS011;12204;50.600;4.608;2022-12-16T00:27:19;33.85;;;18.05;;
22415;SDS011;12204;50.600;4.608;2022-12-16T00:32:23;32.25;;;17.48;;
22415;SDS011;12204;50.600;4.608;2022-12-16T00:37:26;34.13;;;17.13;;
22415;SDS011;12204;50.600;4.608;2022-12-16T00:42:32;29.20;;;16.17;;
22415;SDS011;12204;50.600;4.608;2022-12-16T00:47:35;28.90;;;15.95;;
22415;SDS011;12204;50.600;4.608;2022-12-16T00:52:44;29.65;;;16.27;;
22415;SDS011;12204;50.600;4.608;2022-12-16T00:57:49;30.30;;;15.63;;
22415;SDS011;12204;50.600;4.608;2022-12-16T01:02:55;28.27;;;15.30;;
22415;SDS011;12204;50.600;4.608;2022-12-16T01:07:59;26.30;;;14.90;;
22415;SDS011;12204;50.600;4.608;2022-12-16T01:13:04;26.83;;;14.25;;
22415;SDS011;12204;50.600;4.608;2022-12-16T01:18:08;24.55;;;13.38;;
22415;SDS011;12204;50.600;4.608;2022-12-16T01:23:12;23.98;;;13.60;;
22415;SDS011;12204;50.600;4.608;2022-12-16T01:28:17;23.48;;;12.95;;
22415;SDS011;12204;50.600;4.608;2022-12-16T01:33:21;20.33;;;12.02;;
22415;SDS011;12204;50.600;4.608;2022-12-16T01:38:25;21.55;;;12.80;;
22415;SDS011;12204;50.600;4.608;2022-12-16T01:43:31;25.30;;;13.02;;
22415;SDS011;12204;50.600;4.608;2022-12-16T01:48:40;21.90;;;12.50;;
22415;SDS011;12204;50.600;4.608;2022-12-16T01:53:51;21.20;;;12.43;;
22415;SDS011;12204;50.600;4.608;2022-12-16T01:59:03;22.60;;;12.82;;
22415;SDS011;12204;50.600;4.608;2022-12-16T02:04:08;21.67;;;12.23;;
22415;SDS011;12204;50.600;4.608;2022-12-16T02:09:12;21.70;;;12.38;;
22415;SDS011;12204;50.600;4.608;2022-12-16T02:20:19;20.50;;;11.80;;
22415;SDS011;12204;50.600;4.608;2022-12-16T02:32:31;17.77;;;10.80;;
22415;SDS011;12204;50.600;4.608;2022-12-16T02:38:07;17.05;;;10.63;;
22415;SDS011;12204;50.600;4.608;2022-12-16T02:43:44;16.88;;;10.25;;
22415;SDS011;12204;50.600;4.608;2022-12-16T02:55:05;17.63;;;10.50;;
22415;SDS011;12204;50.600;4.608;2022-12-16T03:00:25;16.92;;;9.98;;
22415;SDS011;12204;50.600;4.608;2022-12-16T03:05:41;15.75;;;9.80;;
22415;SDS011;12204;50.600;4.608;2022-12-16T03:10:49;16.60;;;9.75;;
22415;SDS011;12204;50.600;4.608;2022-12-16T03:15:59;17.47;;;9.97;;
22415;SDS011;12204;50.600;4.608;2022-12-16T03:21:07;17.35;;;9.50;;
22415;SDS011;12204;50.600;4.608;2022-12-16T03:26:12;15.20;;;9.00;;
22415;SDS011;12204;50.600;4.608;2022-12-16T03:31:25;14.68;;;9.15;;
22415;SDS011;12204;50.600;4.608;2022-12-16T03:36:38;16.13;;;9.93;;
22415;SDS011;12204;50.600;4.608;2022-12-16T03:41:43;17.25;;;8.95;;
22415;SDS011;12204;50.600;4.608;2022-12-16T03:46:52;14.27;;;8.50;;
22415;SDS011;12204;50.600;4.608;2022-12-16T03:51:57;16.50;;;8.95;;
22415;SDS011;12204;50.600;4.608;2022-12-16T03:57:01;15.15;;;8.80;;
22415;SDS011;12204;50.600;4.608;2022-12-16T04:02:09;18.73;;;8.43;;
22415;SDS011;12204;50.600;4.608;2022-12-16T04:07:15;14.50;;;8.40;;
22415;SDS011;12204;50.600;4.608;2022-12-16T04:12:25;15.18;;;8.35;;
22415;SDS011;12204;50.600;4.608;2022-12-16T04:17:55;13.48;;;7.97;;
22415;SDS011;12204;50.600;4.608;2022-12-16T04:23:18;14.48;;;8.10;;
22415;SDS011;12204;50.600;4.608;2022-12-16T04:28:40;14.13;;;8.35;;
22415;SDS011;12204;50.600;4.608;2022-12-16T04:33:44;13.07;;;7.55;;
22415;SDS011;12204;50.600;4.608;2022-12-16T04:39:06;12.63;;;7.50;;
22415;SDS011;12204;50.600;4.608;2022-12-16T04:44:30;13.35;;;7.40;;
22415;SDS011;12204;50.600;4.608;2022-12-16T04:49:51;11.95;;;7.18;;
22415;SDS011;12204;50.600;4.608;2022-12-16T04:55:14;11.20;;;6.97;;
22415;SDS011;12204;50.600;4.608;2022-12-16T05:00:35;14.23;;;7.13;;
22415;SDS011;12204;50.600;4.608;2022-12-16T05:05:57;11.48;;;6.90;;
22415;SDS011;12204;50.600;4.608;2022-12-16T05:11:20;11.88;;;6.90;;
22415;SDS011;12204;50.600;4.608;2022-12-16T05:16:42;11.48;;;6.85;;
22415;SDS011;12204;50.600;4.608;2022-12-16T05:22:03;11.27;;;6.57;;
22415;SDS011;12204;50.600;4.608;2022-12-16T05:27:26;12.25;;;6.68;;
22415;SDS011;12204;50.600;4.608;2022-12-16T05:32:47;11.02;;;6.32;;
22415;SDS011;12204;50.600;4.608;2022-12-16T05:38:09;10.80;;;6.40;;
22415;SDS011;12204;50.600;4.608;2022-12-16T05:43:31;10.88;;;6.22;;
22415;SDS011;12204;50.600;4.608;2022-12-16T05:48:53;11.25;;;6.38;;
22415;SDS011;12204;50.600;4.608;2022-12-16T05:54:14;10.70;;;6.30;;
22415;SDS011;12204;50.600;4.608;2022-12-16T05:59:37;11.75;;;6.20;;
22415;SDS011;12204;50.600;4.608;2022-12-16T06:04:58;10.65;;;6.38;;
22415;SDS011;12204;50.600;4.608;2022-12-16T06:10:20;11.75;;;6.00;;
22415;SDS011;12204;50.600;4.608;2022-12-16T06:15:42;10.18;;;5.97;;
22415;SDS011;12204;50.600;4.608;2022-12-16T06:21:09;12.07;;;5.95;;
22415;SDS011;12204;50.600;4.608;2022-12-16T06:26:30;9.38;;;5.68;;
22415;SDS011;12204;50.600;4.608;2022-12-16T06:31:59;11.43;;;5.82;;
22415;SDS011;12204;50.600;4.608;2022-12-16T06:37:20;11.13;;;5.80;;
22415;SDS011;12204;50.600;4.608;2022-12-16T06:42:41;14.25;;;5.78;;
22415;SDS011;12204;50.600;4.608;2022-12-16T06:48:04;11.82;;;5.93;;
22415;SDS011;12204;50.600;4.608;2022-12-16T06:53:26;11.23;;;5.47;;
22415;SDS011;12204;50.600;4.608;2022-12-16T06:58:47;10.07;;;5.57;;
22415;SDS011;12204;50.600;4.608;2022-12-16T07:04:10;9.43;;;5.53;;
22415;SDS011;12204;50.600;4.608;2022-12-16T07:09:31;8.98;;;5.15;;
22415;SDS011;12204;50.600;4.608;2022-12-16T07:14:53;9.57;;;5.50;;
22415;SDS011;12204;50.600;4.608;2022-12-16T07:20:27;10.05;;;5.57;;
22415;SDS011;12204;50.600;4.608;2022-12-16T07:25:49;10.60;;;5.45;;
22415;SDS011;12204;50.600;4.608;2022-12-16T07:31:10;9.50;;;5.30;;
22415;SDS011;12204;50.600;4.608;2022-12-16T07:36:33;11.02;;;5.32;;
22415;SDS011;12204;50.600;4.608;2022-12-16T07:41:54;9.10;;;5.20;;
22415;SDS011;12204;50.600;4.608;2022-12-16T07:47:16;9.20;;;5.30;;
22415;SDS011;12204;50.600;4.608;2022-12-16T07:52:38;9.50;;;5.22;;
22415;SDS011;12204;50.600;4.608;2022-12-16T07:58:00;8.85;;;5.00;;
22415;SDS011;12204;50.600;4.608;2022-12-16T08:03:21;11.18;;;5.47;;
22415;SDS011;12204;50.600;4.608;2022-12-16T08:08:44;11.52;;;5.22;;
22415;SDS011;12204;50.600;4.608;2022-12-16T08:14:05;13.95;;;5.32;;
22415;SDS011;12204;50.600;4.608;2022-12-16T08:19:26;11.88;;;5.20;;
22415;SDS011;12204;50.600;4.608;2022-12-16T08:24:49;9.70;;;4.95;;
22415;SDS011;12204;50.600;4.608;2022-12-16T08:30:10;19.27;;;5.57;;
22415;SDS011;12204;50.600;4.608;2022-12-16T08:35:32;17.65;;;6.40;;
22415;SDS011;12204;50.600;4.608;2022-12-16T08:40:54;14.05;;;7.05;;
22415;SDS011;12204;50.600;4.608;2022-12-16T08:46:15;12.73;;;7.03;;
22415;SDS011;12204;50.600;4.608;2022-12-16T08:51:37;13.63;;;7.05;;
22415;SDS011;12204;50.600;4.608;2022-12-16T08:57:00;13.60;;;7.45;;
22415;SDS011;12204;50.600;4.608;2022-12-16T09:02:21;29.17;;;12.35;;
22415;SDS011;12204;50.600;4.608;2022-12-16T09:07:43;38.70;;;14.18;;
22415;SDS011;12204;50.600;4.608;2022-12-16T09:13:06;39.22;;;13.85;;
22415;SDS011;12204;50.600;4.608;2022-12-16T09:18:31;32.00;;;14.73;;
22415;SDS011;12204;50.600;4.608;2022-12-16T09:23:53;39.70;;;14.57;;
22415;SDS011;12204;50.600;4.608;2022-12-16T09:29:15;31.60;;;13.82;;
22415;SDS011;12204;50.600;4.608;2022-12-16T09:34:43;33.25;;;13.18;;
22415;SDS011;12204;50.600;4.608;2022-12-16T09:40:14;28.80;;;12.75;;
22415;SDS011;12204;50.600;4.608;2022-12-16T09:45:40;28.40;;;11.73;;
22415;SDS011;12204;50.600;4.608;2022-12-16T09:51:13;26.02;;;11.63;;
22415;SDS011;12204;50.600;4.608;2022-12-16T09:56:36;23.00;;;11.43;;
22415;SDS011;12204;50.600;4.608;2022-12-16T10:01:58;25.10;;;11.25;;
22415;SDS011;12204;50.600;4.608;2022-12-16T10:07:21;25.67;;;10.73;;
22415;SDS011;12204;50.600;4.608;2022-12-16T10:12:43;23.25;;;10.20;;
22415;SDS011;12204;50.600;4.608;2022-12-16T10:18:18;21.27;;;9.93;;
22415;SDS011;12204;50.600;4.608;2022-12-16T10:24:00;21.33;;;10.07;;
22415;SDS011;12204;50.600;4.608;2022-12-16T10:29:47;19.05;;;9.18;;
22415;SDS011;12204;50.600;4.608;2022-12-16T10:35:15;18.42;;;9.25;;
22415;SDS011;12204;50.600;4.608;2022-12-16T10:40:41;22.42;;;9.10;;
22415;SDS011;12204;50.600;4.608;2022-12-16T10:46:04;19.08;;;8.75;;
22415;SDS011;12204;50.600;4.608;2022-12-16T10:51:35;18.65;;;8.35;;
22415;SDS011;12204;50.600;4.608;2022-12-16T10:56:57;20.10;;;8.55;;
22415;SDS011;12204;50.600;4.608;2022-12-16T11:02:28;17.55;;;8.07;;
22415;SDS011;12204;50.600;4.608;2022-12-16T11:07:52;17.60;;;8.30;;
22415;SDS011;12204;50.600;4.608;2022-12-16T11:13:18;18.02;;;9.38;;
22415;SDS011;12204;50.600;4.608;2022-12-16T11:18:48;17.52;;;9.38;;
22415;SDS011;12204;50.600;4.608;2022-12-16T11:24:12;20.13;;;10.68;;
22415;SDS011;12204;50.600;4.608;2022-12-16T11:29:47;20.60;;;10.45;;
22415;SDS011;12204;50.600;4.608;2022-12-16T11:35:16;20.15;;;10.80;;
22415;SDS011;12204;50.600;4.608;2022-12-16T11:40:43;19.98;;;11.38;;
22415;SDS011;12204;50.600;4.608;2022-12-16T11:46:07;18.80;;;10.10;;
22415;SDS011;12204;50.600;4.608;2022-12-16T11:57:18;17.83;;;9.77;;
22415;SDS011;12204;50.600;4.608;2022-12-16T12:02:46;18.10;;;9.93;;
22415;SDS011;12204;50.600;4.608;2022-12-16T12:08:16;19.48;;;9.98;;
22415;SDS011;12204;50.600;4.608;2022-12-16T12:13:51;20.00;;;9.85;;
22415;SDS011;12204;50.600;4.608;2022-12-16T12:19:26;17.50;;;9.25;;
22415;SDS011;12204;50.600;4.608;2022-12-16T12:25:27;16.52;;;9.10;;
22415;SDS011;12204;50.600;4.608;2022-12-16T12:31:05;15.82;;;8.90;;
22415;SDS011;12204;50.600;4.608;2022-12-16T12:36:45;17.05;;;8.43;;
22415;SDS011;12204;50.600;4.608;2022-12-16T12:42:18;15.15;;;8.60;;
22415;SDS011;12204;50.600;4.608;2022-12-16T12:47:52;18.08;;;7.97;;
22415;SDS011;12204;50.600;4.608;2022-12-16T12:53:27;14.25;;;7.60;;
22415;SDS011;12204;50.600;4.608;2022-12-16T12:59:00;13.77;;;7.80;;
22415;SDS011;12204;50.600;4.608;2022-12-16T13:04:28;13.63;;;7.60;;
22415;SDS011;12204;50.600;4.608;2022-12-16T13:15:35;13.38;;;7.15;;
22415;SDS011;12204;50.600;4.608;2022-12-16T13:21:00;14.50;;;7.20;;
22415;SDS011;12204;50.600;4.608;2022-12-16T13:26:22;12.38;;;6.85;;
22415;SDS011;12204;50.600;4.608;2022-12-16T13:31:57;13.18;;;6.65;;
22415;SDS011;12204;50.600;4.608;2022-12-16T13:37:23;13.95;;;6.88;;
22415;SDS011;12204;50.600;4.608;2022-12-16T13:42:50;11.38;;;6.15;;
22415;SDS011;12204;50.600;4.608;2022-12-16T13:53:59;12.63;;;6.15;;
22415;SDS011;12204;50.600;4.608;2022-12-16T13:59:22;9.80;;;5.50;;
22415;SDS011;12204;50.600;4.608;2022-12-16T14:04:48;12.38;;;6.07;;
22415;SDS011;12204;50.600;4.608;2022-12-16T14:10:23;10.60;;;5.57;;
22415;SDS011;12204;50.600;4.608;2022-12-16T14:15:52;10.73;;;5.65;;
22415;SDS011;12204;50.600;4.608;2022-12-16T14:21:22;9.68;;;5.43;;
22415;SDS011;12204;50.600;4.608;2022-12-16T14:26:55;9.38;;;5.22;;
22415;SDS011;12204;50.600;4.608;2022-12-16T14:32:17;10.80;;;5.30;;
22415;SDS011;12204;50.600;4.608;2022-12-16T14:37:44;10.07;;;5.10;;
22415;SDS011;12204;50.600;4.608;2022-12-16T14:43:11;10.68;;;4.90;;
22415;SDS011;12204;50.600;4.608;2022-12-16T14:48:36;10.15;;;4.72;;
22415;SDS011;12204;50.600;4.608;2022-12-16T14:54:08;8.98;;;4.97;;
22415;SDS011;12204;50.600;4.608;2022-12-16T14:59:43;9.07;;;4.60;;
22415;SDS011;12204;50.600;4.608;2022-12-16T15:05:04;11.18;;;4.63;;
22415;SDS011;12204;50.600;4.608;2022-12-16T15:10:26;9.10;;;4.50;;
22415;SDS011;12204;50.600;4.608;2022-12-16T15:15:49;9.35;;;4.72;;
22415;SDS011;12204;50.600;4.608;2022-12-16T15:21:11;8.57;;;4.05;;
22415;SDS011;12204;50.600;4.608;2022-12-16T15:26:33;7.72;;;4.03;;
22415;SDS011;12204;50.600;4.608;2022-12-16T15:31:56;7.53;;;3.83;;
22415;SDS011;12204;50.600;4.608;2022-12-16T15:37:29;7.82;;;3.85;;
22415;SDS011;12204;50.600;4.608;2022-12-16T15:43:04;8.20;;;3.83;;
22415;SDS011;12204;50.600;4.608;2022-12-16T15:48:27;7.43;;;3.30;;
22415;SDS011;12204;50.600;4.608;2022-12-16T15:53:59;6.43;;;3.00;;
22415;SDS011;12204;50.600;4.608;2022-12-16T15:59:23;7.88;;;2.90;;
22415;SDS011;12204;50.600;4.608;2022-12-16T16:04:51;7.53;;;3.25;;
22415;SDS011;12204;50.600;4.608;2022-12-16T16:10:13;8.30;;;4.25;;
22415;SDS011;12204;50.600;4.608;2022-12-16T16:15:38;8.75;;;4.68;;
22415;SDS011;12204;50.600;4.608;2022-12-16T16:21:01;10.27;;;5.00;;
22415;SDS011;12204;50.600;4.608;2022-12-16T16:26:24;10.25;;;5.32;;
22415;SDS011;12204;50.600;4.608;2022-12-16T16:31:47;9.95;;;5.57;;
22415;SDS011;12204;50.600;4.608;2022-12-16T16:37:10;10.73;;;5.60;;
22415;SDS011;12204;50.600;4.608;2022-12-16T16:42:36;34.23;;;7.30;;
22415;SDS011;12204;50.600;4.608;2022-12-16T16:48:09;29.92;;;7.57;;
22415;SDS011;12204;50.600;4.608;2022-12-16T16:53:35;21.00;;;6.55;;
22415;SDS011;12204;50.600;4.608;2022-12-16T16:58:56;21.30;;;6.55;;
22415;SDS011;12204;50.600;4.608;2022-12-16T17:04:17;19.05;;;6.18;;
22415;SDS011;12204;50.600;4.608;2022-12-16T17:09:40;19.17;;;5.50;;
22415;SDS011;12204;50.600;4.608;2022-12-16T17:15:01;21.45;;;5.25;;
22415;SDS011;12204;50.600;4.608;2022-12-16T17:20:35;18.08;;;5.68;;
22415;SDS011;12204;50.600;4.608;2022-12-16T17:26:12;17.90;;;4.75;;
22415;SDS011;12204;50.600;4.608;2022-12-16T17:31:34;23.67;;;4.57;;
22415;SDS011;12204;50.600;4.608;2022-12-16T17:36:55;17.35;;;3.80;;
22415;SDS011;12204;50.600;4.608;2022-12-16T17:42:18;19.05;;;4.30;;
22415;SDS011;12204;50.600;4.608;2022-12-16T17:48:04;17.15;;;4.00;;
22415;SDS011;12204;50.600;4.608;2022-12-16T17:53:29;14.73;;;3.63;;
22415;SDS011;12204;50.600;4.608;2022-12-16T17:59:02;14.23;;;3.70;;
22415;SDS011;12204;50.600;4.608;2022-12-16T18:04:24;14.63;;;3.70;;
22415;SDS011;12204;50.600;4.608;2022-12-16T18:20:34;10.88;;;3.30;;
22415;SDS011;12204;50.600;4.608;2022-12-16T18:26:24;10.57;;;3.22;;
22415;SDS011;12204;50.600;4.608;2022-12-16T18:31:46;10.90;;;2.90;;
22415;SDS011;12204;50.600;4.608;2022-12-16T18:37:11;11.82;;;3.35;;
22415;SDS011;12204;50.600;4.608;2022-12-16T18:42:32;10.77;;;2.92;;
22415;SDS011;12204;50.600;4.608;2022-12-16T18:47:54;15.48;;;3.10;;
22415;SDS011;12204;50.600;4.608;2022-12-16T18:53:16;10.23;;;2.90;;
22415;SDS011;12204;50.600;4.608;2022-12-16T18:58:38;8.68;;;2.50;;
22415;SDS011;12204;50.600;4.608;2022-12-16T19:03:59;9.32;;;2.78;;
22415;SDS011;12204;50.600;4.608;2022-12-16T19:09:22;9.38;;;3.03;;
22415;SDS011;12204;50.600;4.608;2022-12-16T19:14:43;9.32;;;2.63;;
22415;SDS011;12204;50.600;4.608;2022-12-16T19:20:04;11.07;;;3.15;;
22415;SDS011;12204;50.600;4.608;2022-12-16T19:25:35;8.18;;;2.70;;
22415;SDS011;12204;50.600;4.608;2022-12-16T19:30:57;9.35;;;2.90;;
22415;SDS011;12204;50.600;4.608;2022-12-16T19:36:18;9.10;;;3.20;;
22415;SDS011;12204;50.600;4.608;2022-12-16T19:42:01;10.75;;;3.05;;
22415;SDS011;12204;50.600;4.608;2022-12-16T19:47:34;10.48;;;3.22;;
22415;SDS011;12204;50.600;4.608;2022-12-16T19:53:00;7.95;;;2.90;;
22415;SDS011;12204;50.600;4.608;2022-12-16T19:58:24;8.93;;;3.03;;
22415;SDS011;12204;50.600;4.608;2022-12-16T20:03:47;8.65;;;2.95;;
22415;SDS011;12204;50.600;4.608;2022-12-16T20:09:10;7.35;;;3.10;;
22415;SDS011;12204;50.600;4.608;2022-12-16T20:14:34;9.40;;;3.25;;
22415;SDS011;12204;50.600;4.608;2022-12-16T20:19:57;9.73;;;3.28;;
22415;SDS011;12204;50.600;4.608;2022-12-16T20:25:18;8.45;;;3.33;;
22415;SDS011;12204;50.600;4.608;2022-12-16T20:30:41;9.15;;;3.20;;
22415;SDS011;12204;50.600;4.608;2022-12-16T20:36:02;7.47;;;3.15;;
22415;SDS011;12204;50.600;4.608;2022-12-16T20:41:25;10.95;;;3.70;;
22415;SDS011;12204;50.600;4.608;2022-12-16T20:46:48;8.98;;;3.50;;
22415;SDS011;12204;50.600;4.608;2022-12-16T20:52:24;8.13;;;3.50;;
22415;SDS011;12204;50.600;4.608;2022-12-16T20:57:45;11.02;;;3.50;;
22415;SDS011;12204;50.600;4.608;2022-12-16T21:03:08;10.10;;;3.67;;
22415;SDS011;12204;50.600;4.608;2022-12-16T21:08:29;10.95;;;3.28;;
22415;SDS011;12204;50.600;4.608;2022-12-16T21:13:50;8.82;;;3.50;;
22415;SDS011;12204;50.600;4.608;2022-12-16T21:19:13;7.93;;;3.45;;
22415;SDS011;12204;50.600;4.608;2022-12-16T21:24:34;8.43;;;3.63;;
22415;SDS011;12204;50.600;4.608;2022-12-16T21:29:56;10.00;;;3.20;;
22415;SDS011;12204;50.600;4.608;2022-12-16T21:35:19;7.95;;;3.25;;
22415;SDS011;12204;50.600;4.608;2022-12-16T21:40:41;7.68;;;3.53;;
22415;SDS011;12204;50.600;4.608;2022-12-16T21:46:02;8.90;;;3.50;;
22415;SDS011;12204;50.600;4.608;2022-12-16T21:51:25;7.85;;;3.28;;
22415;SDS011;12204;50.600;4.608;2022-12-16T21:56:47;10.43;;;3.35;;
22415;SDS011;12204;50.600;4.608;2022-12-16T22:02:10;7.00;;;3.20;;
22415;SDS011;12204;50.600;4.608;2022-12-16T22:07:34;7.63;;;3.08;;
22415;SDS011;12204;50.600;4.608;2022-12-16T22:12:57;7.93;;;3.35;;
22415;SDS011;12204;50.600;4.608;2022-12-16T22:18:19;8.25;;;3.72;;
22415;SDS011;12204;50.600;4.608;2022-12-16T22:23:41;29.70;;;14.43;;
22415;SDS011;12204;50.600;4.608;2022-12-16T22:29:02;43.42;;;20.75;;
22415;SDS011;12204;50.600;4.608;2022-12-16T22:34:23;43.15;;;18.95;;
22415;SDS011;12204;50.600;4.608;2022-12-16T22:39:46;39.65;;;18.67;;
22415;SDS011;12204;50.600;4.608;2022-12-16T22:45:07;44.22;;;18.25;;
22415;SDS011;12204;50.600;4.608;2022-12-16T22:50:30;40.00;;;18.10;;
22415;SDS011;12204;50.600;4.608;2022-12-16T22:55:53;36.28;;;17.33;;
22415;SDS011;12204;50.600;4.608;2022-12-16T23:01:15;37.60;;;17.25;;
22415;SDS011;12204;50.600;4.608;2022-12-16T23:06:37;35.72;;;17.05;;
22415;SDS011;12204;50.600;4.608;2022-12-16T23:12:14;32.60;;;16.05;;
22415;SDS011;12204;50.600;4.608;2022-12-16T23:17:35;32.20;;;15.40;;
22415;SDS011;12204;50.600;4.608;2022-12-16T23:22:56;29.38;;;15.32;;
22415;SDS011;12204;50.600;4.608;2022-12-16T23:28:19;29.42;;;14.57;;
22415;SDS011;12204;50.600;4.608;2022-12-16T23:33:40;28.85;;;13.88;;
22415;SDS011;12204;50.600;4.608;2022-12-16T23:39:01;30.90;;;14.32;;
22415;SDS011;12204;50.600;4.608;2022-12-16T23:44:24;26.25;;;13.35;;
22415;SDS011;12204;50.600;4.608;2022-12-16T23:49:45;25.52;;;13.27;;
22415;SDS011;12204;50.600;4.608;2022-12-16T23:55:11;26.25;;;13.35;;
